Time;durP1;ratioP1;P1;durP2;ratioP2;P2;SDS_P1;SDS_P2;PMS_P1;PMS_P2;Temp;Humidity;BMP_temperature;BMP_pressure;BME280_temperature;BME280_humidity;BME280_pressure;Samples;Min_cycle;Max_cycle;Signal;HPM_P1;HPM_P2
2022/09/27 00:02:15;;;;;;;;;1.50;0.00;;;;;;;;5104581;27;61727;-82
2022/09/27 00:04:40;;;;;;;;;0.00;0.00;;;;;;;;5104703;27;62184;-82
2022/09/27 00:07:06;;;;;;;;;1.00;1.00;;;;;;;;5105246;27;61791;-82
2022/09/27 00:09:31;;;;;;;;;2.25;1.00;;;;;;;;5104668;27;61753;-82
2022/09/27 00:11:56;;;;;;;;;1.00;1.00;;;;;;;;5104313;27;61720;-81
2022/09/27 00:14:22;;;;;;;;;2.50;0.75;;;;;;;;5104919;27;62096;-82
2022/09/27 00:16:47;;;;;;;;;1.25;1.00;;;;;;;;5104495;27;61695;-81
2022/09/27 00:19:14;;;;;;;;;0.00;0.00;;;;;;;;5105208;27;62337;-81
2022/09/27 00:21:40;;;;;;;;;2.75;0.00;;;;;;;;5103827;27;61871;-81
2022/09/27 00:24:05;;;;;;;;;5.00;1.00;;;;;;;;5104114;27;62104;-81
2022/09/27 00:26:31;;;;;;;;;1.00;1.00;;;;;;;;5104500;27;61883;-81
2022/09/27 00:28:56;;;;;;;;;1.00;1.00;;;;;;;;5104366;27;62018;-81
2022/09/27 00:31:28;;;;;;;;;1.00;1.00;;;;;;;;5103786;27;62079;-81
2022/09/27 00:33:53;;;;;;;;;1.00;1.00;;;;;;;;5104231;27;61874;-82
2022/09/27 00:36:20;;;;;;;;;1.00;1.00;;;;;;;;5104706;27;61931;-82
2022/09/27 00:38:45;;;;;;;;;3.00;1.00;;;;;;;;5101792;27;61970;-82
2022/09/27 00:41:15;;;;;;;;;1.25;1.00;;;;;;;;5103895;27;62982;-82
2022/09/27 00:43:49;;;;;;;;;1.00;1.00;;;;;;;;5104062;27;61921;-82
2022/09/27 00:46:20;;;;;;;;;1.00;1.00;;;;;;;;5104042;27;61690;-81
2022/09/27 00:48:45;;;;;;;;;0.00;0.00;;;;;;;;5102923;27;61995;-81
2022/09/27 00:51:11;;;;;;;;;2.00;1.75;;;;;;;;5103810;27;62997;-81
2022/09/27 00:53:41;;;;;;;;;2.00;2.00;;;;;;;;5103779;27;61767;-82
2022/09/27 00:56:14;;;;;;;;;1.00;1.00;;;;;;;;5104121;27;61672;-82
2022/09/27 00:58:43;;;;;;;;;0.00;0.00;;;;;;;;5104086;27;61995;-82
2022/09/27 01:01:12;;;;;;;;;3.75;1.00;;;;;;;;5102949;27;62280;-83
2022/09/27 01:03:40;;;;;;;;;1.00;0.00;;;;;;;;5104069;27;62009;-82
2022/09/27 01:06:07;;;;;;;;;1.00;1.00;;;;;;;;5102563;27;62064;-82
2022/09/27 01:08:33;;;;;;;;;0.50;0.50;;;;;;;;5103907;27;61925;-82
2022/09/27 01:11:12;;;;;;;;;2.00;0.00;;;;;;;;5103173;27;63234;-82
2022/09/27 01:13:42;;;;;;;;;1.00;1.00;;;;;;;;5104073;27;61848;-82
2022/09/27 01:16:23;;;;;;;;;2.00;1.00;;;;;;;;5103246;27;61785;-82
2022/09/27 01:19:00;;;;;;;;;2.00;0.50;;;;;;;;5102450;27;61754;-82
2022/09/27 01:21:29;;;;;;;;;0.75;0.50;;;;;;;;5102897;27;61940;-82
2022/09/27 01:24:05;;;;;;;;;1.00;1.00;;;;;;;;5103463;27;61830;-82
2022/09/27 01:26:31;;;;;;;;;2.50;1.50;;;;;;;;5104133;27;62291;-82
2022/09/27 01:29:18;;;;;;;;;0.75;0.50;;;;;;;;5103569;27;62112;-82
2022/09/27 01:31:50;;;;;;;;;1.50;0.00;;;;;;;;5102008;27;62131;-82
2022/09/27 01:34:41;;;;;;;;;2.25;1.00;;;;;;;;5103594;27;61960;-82
2022/09/27 01:37:12;;;;;;;;;0.75;0.75;;;;;;;;5100639;27;61779;-82
2022/09/27 01:39:47;;;;;;;;;1.50;0.00;;;;;;;;5103674;27;61832;-82
2022/09/27 01:42:26;;;;;;;;;2.75;1.50;;;;;;;;5102557;27;61788;-82
2022/09/27 01:44:51;;;;;;;;;1.00;0.00;;;;;;;;5102948;27;61885;-82
2022/09/27 01:47:19;;;;;;;;;0.75;0.75;;;;;;;;5103166;27;62259;-81
2022/09/27 01:49:48;;;;;;;;;0.00;0.00;;;;;;;;5103448;27;61860;-82
2022/09/27 01:52:16;;;;;;;;;0.50;0.50;;;;;;;;5102396;27;61835;-82
2022/09/27 01:54:46;;;;;;;;;1.00;0.00;;;;;;;;5102912;27;61920;-81
2022/09/27 01:57:16;;;;;;;;;2.50;1.50;;;;;;;;5102841;27;61859;-82
2022/09/27 01:59:57;;;;;;;;;0.50;0.00;;;;;;;;5102979;27;62004;-82
2022/09/27 02:02:25;;;;;;;;;1.75;1.00;;;;;;;;5102244;27;63952;-82
2022/09/27 02:04:55;;;;;;;;;1.00;0.00;;;;;;;;5103095;27;61875;-82
2022/09/27 02:07:23;;;;;;;;;0.00;0.00;;;;;;;;5102820;27;61991;-82
2022/09/27 02:09:53;;;;;;;;;1.25;0.00;;;;;;;;5103248;27;61763;-82
2022/09/27 02:12:22;;;;;;;;;0.00;0.00;;;;;;;;5102265;27;62050;-82
2022/09/27 02:14:52;;;;;;;;;0.75;0.75;;;;;;;;5102734;27;62464;-82
2022/09/27 02:17:20;;;;;;;;;2.50;0.00;;;;;;;;5102316;27;61586;-81
2022/09/27 02:19:53;;;;;;;;;1.75;0.00;;;;;;;;5101147;27;62003;-82
2022/09/27 02:22:25;;;;;;;;;1.25;0.00;;;;;;;;5101786;27;61980;-81
2022/09/27 02:24:57;;;;;;;;;1.00;1.00;;;;;;;;5101118;27;61843;-82
2022/09/27 02:27:25;;;;;;;;;2.00;0.00;;;;;;;;5102818;27;62452;-82
2022/09/27 02:29:59;;;;;;;;;3.25;0.00;;;;;;;;5102592;27;61815;-82
2022/09/27 02:32:25;;;;;;;;;0.25;0.25;;;;;;;;5102138;27;62238;-82
2022/09/27 02:34:51;;;;;;;;;2.25;0.75;;;;;;;;5102596;27;61720;-82
2022/09/27 02:37:16;;;;;;;;;0.00;0.00;;;;;;;;5102461;27;61710;-81
2022/09/27 02:39:42;;;;;;;;;0.50;0.00;;;;;;;;5101374;27;62149;-82
2022/09/27 02:42:08;;;;;;;;;0.00;0.00;;;;;;;;5101838;27;61807;-82
2022/09/27 02:44:33;;;;;;;;;0.00;0.00;;;;;;;;5102246;27;61849;-82
2022/09/27 02:47:01;;;;;;;;;0.00;0.00;;;;;;;;5102413;27;61921;-82
2022/09/27 02:49:32;;;;;;;;;0.00;0.00;;;;;;;;5102578;27;62416;-82
2022/09/27 02:52:06;;;;;;;;;1.00;1.00;;;;;;;;5101816;27;62937;-82
2022/09/27 02:54:32;;;;;;;;;0.00;0.00;;;;;;;;5101969;27;62276;-82
2022/09/27 02:57:01;;;;;;;;;2.25;0.00;;;;;;;;5102175;27;62042;-82
2022/09/27 02:59:38;;;;;;;;;2.00;0.00;;;;;;;;5102602;27;61767;-82
2022/09/27 03:02:25;;;;;;;;;0.00;0.00;;;;;;;;5101349;27;62682;-82
2022/09/27 03:04:54;;;;;;;;;0.25;0.00;;;;;;;;5102342;27;61817;-82
2022/09/27 03:07:20;;;;;;;;;0.75;0.00;;;;;;;;5100348;27;62111;-82
2022/09/27 03:09:47;;;;;;;;;0.00;0.00;;;;;;;;5102362;27;61910;-82
2022/09/27 03:12:12;;;;;;;;;1.00;1.00;;;;;;;;5101637;27;62171;-82
2022/09/27 03:14:37;;;;;;;;;1.00;1.00;;;;;;;;5102009;27;61907;-82
2022/09/27 03:17:03;;;;;;;;;1.25;0.25;;;;;;;;5102060;27;61200;-83
2022/09/27 03:19:28;;;;;;;;;1.00;0.00;;;;;;;;5101805;27;62073;-82
2022/09/27 03:21:53;;;;;;;;;0.75;0.75;;;;;;;;5101709;27;62016;-82
2022/09/27 03:24:19;;;;;;;;;0.50;0.25;;;;;;;;5101441;27;62201;-82
2022/09/27 03:26:44;;;;;;;;;2.00;1.00;;;;;;;;5101850;27;61823;-83
2022/09/27 03:29:10;;;;;;;;;2.25;1.00;;;;;;;;5102245;27;61795;-83
2022/09/27 03:31:35;;;;;;;;;2.75;1.00;;;;;;;;5101327;27;61940;-82
2022/09/27 03:34:00;;;;;;;;;0.50;0.00;;;;;;;;5105526;27;62070;-83
2022/09/27 03:36:26;;;;;;;;;1.25;0.25;;;;;;;;5105426;27;62101;-83
2022/09/27 03:38:51;;;;;;;;;1.75;1.00;;;;;;;;5105287;27;61927;-83
2022/09/27 03:41:17;;;;;;;;;0.50;0.50;;;;;;;;5104566;27;61741;-82
2022/09/27 03:43:42;;;;;;;;;0.50;0.50;;;;;;;;5105158;27;61975;-83
2022/09/27 03:46:08;;;;;;;;;5.00;1.00;;;;;;;;5104970;27;62070;-83
2022/09/27 03:48:33;;;;;;;;;0.00;0.00;;;;;;;;5103971;27;61828;-83
2022/09/27 03:50:58;;;;;;;;;0.75;0.75;;;;;;;;5104558;27;62983;-83
2022/09/27 03:53:24;;;;;;;;;1.00;1.00;;;;;;;;5104986;27;61811;-84
2022/09/27 03:55:49;;;;;;;;;2.75;0.25;;;;;;;;5104934;27;61920;-83
2022/09/27 03:58:14;;;;;;;;;2.00;1.00;;;;;;;;5105474;27;61853;-83
2022/09/27 04:00:40;;;;;;;;;0.00;0.00;;;;;;;;5104027;27;62996;-83
2022/09/27 04:03:05;;;;;;;;;0.75;0.75;;;;;;;;5105182;27;62193;-83
2022/09/27 04:05:31;;;;;;;;;0.00;0.00;;;;;;;;5105070;27;61925;-83
2022/09/27 04:07:57;;;;;;;;;1.00;1.00;;;;;;;;5105441;27;62193;-83
2022/09/27 04:10:22;;;;;;;;;0.00;0.00;;;;;;;;5103951;27;62132;-83
2022/09/27 04:12:48;;;;;;;;;0.00;0.00;;;;;;;;5104853;27;62408;-83
2022/09/27 04:15:13;;;;;;;;;0.00;0.00;;;;;;;;5104796;27;61995;-83
2022/09/27 04:17:40;;;;;;;;;1.75;1.00;;;;;;;;5104635;27;61820;-83
2022/09/27 04:20:05;;;;;;;;;1.00;1.00;;;;;;;;5103973;27;63675;-83
2022/09/27 04:22:31;;;;;;;;;0.00;0.00;;;;;;;;5103405;27;61758;-83
2022/09/27 04:24:57;;;;;;;;;0.00;0.00;;;;;;;;5104087;27;61760;-84
2022/09/27 04:27:22;;;;;;;;;0.75;0.75;;;;;;;;5105085;27;61854;-83
2022/09/27 04:29:47;;;;;;;;;1.00;0.00;;;;;;;;5103794;27;62106;-83
2022/09/27 04:32:13;;;;;;;;;1.00;0.00;;;;;;;;5104107;27;62085;-83
2022/09/27 04:37:22;;;;;;;;;2.75;1.00;;;;;;;;5104695;27;61945;-83
2022/09/27 04:39:48;;;;;;;;;0.25;0.25;;;;;;;;5103594;27;62050;-83
2022/09/27 04:42:14;;;;;;;;;1.50;0.75;;;;;;;;5104290;27;61721;-84
2022/09/27 04:44:41;;;;;;;;;1.00;0.00;;;;;;;;5103557;27;61850;-83
2022/09/27 04:47:11;;;;;;;;;0.50;0.50;;;;;;;;5102652;27;61756;-83
2022/09/27 04:49:37;;;;;;;;;0.00;0.00;;;;;;;;5103573;27;61952;-83
2022/09/27 04:52:04;;;;;;;;;1.00;0.00;;;;;;;;5104072;27;61694;-83
2022/09/27 04:54:29;;;;;;;;;2.00;1.00;;;;;;;;5103812;27;61851;-82
2022/09/27 04:56:54;;;;;;;;;1.00;1.00;;;;;;;;5104063;27;61719;-82
2022/09/27 04:59:20;;;;;;;;;0.00;0.00;;;;;;;;5103662;27;63177;-82
2022/09/27 05:01:45;;;;;;;;;0.00;0.00;;;;;;;;5103870;27;61831;-83
2022/09/27 05:04:11;;;;;;;;;3.00;0.00;;;;;;;;5103550;27;61996;-82
2022/09/27 05:06:36;;;;;;;;;3.00;1.50;;;;;;;;5102612;27;62699;-83
2022/09/27 05:09:01;;;;;;;;;1.00;1.00;;;;;;;;5102815;27;62246;-83
2022/09/27 05:11:27;;;;;;;;;0.00;0.00;;;;;;;;5103651;27;61820;-84
2022/09/27 05:13:52;;;;;;;;;1.75;1.00;;;;;;;;5104855;27;61943;-82
2022/09/27 05:16:18;;;;;;;;;2.25;1.00;;;;;;;;5103707;27;61814;-83
2022/09/27 05:18:44;;;;;;;;;1.00;1.00;;;;;;;;5103583;27;62035;-83
2022/09/27 05:21:09;;;;;;;;;3.75;0.00;;;;;;;;5104331;27;62039;-84
2022/09/27 05:23:34;;;;;;;;;0.00;0.00;;;;;;;;5103430;27;61990;-85
2022/09/27 05:26:06;;;;;;;;;0.50;0.50;;;;;;;;5103726;27;61792;-84
2022/09/27 05:28:33;;;;;;;;;1.25;0.25;;;;;;;;5102951;27;61934;-85
2022/09/27 05:31:03;;;;;;;;;1.25;1.25;;;;;;;;5102475;27;62051;-84
2022/09/27 05:33:32;;;;;;;;;3.00;0.00;;;;;;;;5100700;27;61725;-85
2022/09/27 05:35:57;;;;;;;;;1.00;0.00;;;;;;;;5103421;27;61844;-85
2022/09/27 05:38:24;;;;;;;;;3.00;1.75;;;;;;;;5101496;27;61768;-85
2022/09/27 05:40:50;;;;;;;;;0.25;0.25;;;;;;;;5099398;27;61875;-84
2022/09/27 05:43:18;;;;;;;;;1.00;1.00;;;;;;;;5101241;27;61852;-85
2022/09/27 05:45:45;;;;;;;;;5.00;4.00;;;;;;;;5100619;27;62209;-87
2022/09/27 05:48:11;;;;;;;;;2.50;1.50;;;;;;;;5100372;27;65057;-87
2022/09/27 05:50:37;;;;;;;;;0.50;0.50;;;;;;;;5098304;27;62080;-84
2022/09/27 05:53:02;;;;;;;;;1.75;0.00;;;;;;;;5095732;27;61836;-84
2022/09/27 05:55:28;;;;;;;;;1.75;1.75;;;;;;;;5100751;27;61949;-83
2022/09/27 05:57:55;;;;;;;;;4.75;1.00;;;;;;;;5100740;27;63900;-84
2022/09/27 06:00:21;;;;;;;;;1.75;0.75;;;;;;;;5101934;27;62045;-85
2022/09/27 06:02:51;;;;;;;;;3.00;0.00;;;;;;;;5101558;27;61804;-84
2022/09/27 06:05:18;;;;;;;;;2.25;0.75;;;;;;;;5102749;27;61766;-84
2022/09/27 06:07:44;;;;;;;;;0.00;0.00;;;;;;;;5102191;27;62823;-83
2022/09/27 06:10:09;;;;;;;;;0.00;0.00;;;;;;;;5102349;27;61944;-84
2022/09/27 06:12:35;;;;;;;;;0.75;0.00;;;;;;;;5102746;27;61963;-83
2022/09/27 06:15:00;;;;;;;;;1.00;1.00;;;;;;;;5103008;27;61868;-82
2022/09/27 06:17:25;;;;;;;;;0.75;0.75;;;;;;;;5100261;27;62649;-82
2022/09/27 06:19:50;;;;;;;;;1.25;1.25;;;;;;;;5102658;27;61942;-82
2022/09/27 06:22:16;;;;;;;;;1.75;1.00;;;;;;;;5084567;27;61806;-82
2022/09/27 06:24:41;;;;;;;;;2.25;1.25;;;;;;;;5099027;27;61853;-81
2022/09/27 06:27:06;;;;;;;;;2.00;2.00;;;;;;;;5101766;27;62019;-82
2022/09/27 06:29:34;;;;;;;;;6.75;6.00;;;;;;;;5101727;27;62118;-81
2022/09/27 06:31:59;;;;;;;;;3.00;3.00;;;;;;;;5100042;27;61893;-82
2022/09/27 06:34:24;;;;;;;;;2.00;2.00;;;;;;;;5102231;27;61782;-81
2022/09/27 06:36:49;;;;;;;;;2.75;1.25;;;;;;;;5098607;27;63064;-82
2022/09/27 06:39:15;;;;;;;;;2.00;2.00;;;;;;;;5099782;27;62110;-81
2022/09/27 06:41:40;;;;;;;;;1.00;1.00;;;;;;;;5100241;27;62097;-81
2022/09/27 06:44:06;;;;;;;;;2.25;1.75;;;;;;;;5084984;27;61736;-81
2022/09/27 06:46:31;;;;;;;;;2.50;0.00;;;;;;;;5087687;27;61959;-81
2022/09/27 06:48:56;;;;;;;;;1.00;0.75;;;;;;;;5101093;27;61718;-80
2022/09/27 06:51:21;;;;;;;;;3.00;0.00;;;;;;;;5098567;27;62007;-81
2022/09/27 06:53:47;;;;;;;;;1.00;1.00;;;;;;;;5099123;27;61874;-82
2022/09/27 06:56:12;;;;;;;;;3.25;1.00;;;;;;;;5101558;27;61995;-80
2022/09/27 07:01:26;;;;;;;;;2.00;2.00;;;;;;;;5081514;27;61834;-80
2022/09/27 07:03:51;;;;;;;;;3.00;2.00;;;;;;;;5082022;28;61951;-80
2022/09/27 07:06:19;;;;;;;;;0.25;0.25;;;;;;;;5088069;27;61717;-80
2022/09/27 07:08:44;;;;;;;;;2.00;0.00;;;;;;;;5088028;27;61709;-80
2022/09/27 07:11:10;;;;;;;;;3.00;0.00;;;;;;;;5103706;27;61986;-80
2022/09/27 07:13:39;;;;;;;;;0.00;0.00;;;;;;;;5102506;27;62011;-80
2022/09/27 07:16:04;;;;;;;;;2.00;0.25;;;;;;;;5084439;28;61909;-80
2022/09/27 07:18:30;;;;;;;;;0.00;0.00;;;;;;;;5085175;28;61882;-79
2022/09/27 07:20:58;;;;;;;;;0.00;0.00;;;;;;;;5085081;27;61770;-80
2022/09/27 07:23:23;;;;;;;;;2.00;2.00;;;;;;;;5098934;27;61912;-81
2022/09/27 07:25:49;;;;;;;;;0.25;0.25;;;;;;;;5105025;27;61883;-80
2022/09/27 07:28:15;;;;;;;;;1.00;1.00;;;;;;;;5105671;27;62136;-80
2022/09/27 07:30:41;;;;;;;;;0.00;0.00;;;;;;;;5104963;27;61669;-79
2022/09/27 07:33:08;;;;;;;;;2.25;1.75;;;;;;;;5105638;27;61739;-80
2022/09/27 07:35:35;;;;;;;;;1.00;1.00;;;;;;;;5104504;27;63330;-81
2022/09/27 07:38:02;;;;;;;;;0.00;0.00;;;;;;;;5105504;27;61911;-80
2022/09/27 07:40:27;;;;;;;;;0.00;0.00;;;;;;;;5105035;27;61920;-80
2022/09/27 07:42:54;;;;;;;;;1.75;1.00;;;;;;;;5104680;27;62640;-82
2022/09/27 07:45:19;;;;;;;;;0.25;0.00;;;;;;;;5100550;27;61854;-81
2022/09/27 07:47:44;;;;;;;;;0.00;0.00;;;;;;;;5103714;27;62297;-81
2022/09/27 07:50:10;;;;;;;;;0.75;0.75;;;;;;;;5104945;27;61918;-82
2022/09/27 07:52:42;;;;;;;;;0.00;0.00;;;;;;;;5104854;27;61805;-81
2022/09/27 07:55:12;;;;;;;;;2.50;1.50;;;;;;;;5101819;27;63778;-82
2022/09/27 07:57:37;;;;;;;;;1.50;0.00;;;;;;;;5104644;27;61933;-81
2022/09/27 08:00:04;;;;;;;;;1.00;1.00;;;;;;;;5103745;27;61949;-81
2022/09/27 08:02:31;;;;;;;;;2.25;1.00;;;;;;;;5104661;27;61920;-81
2022/09/27 08:04:58;;;;;;;;;2.00;0.00;;;;;;;;5102970;27;64081;-81
2022/09/27 08:07:23;;;;;;;;;1.25;1.25;;;;;;;;5104702;27;61881;-81
2022/09/27 08:09:48;;;;;;;;;2.00;1.00;;;;;;;;5105003;27;61683;-80
2022/09/27 08:12:14;;;;;;;;;1.00;1.00;;;;;;;;5105020;27;61710;-80
2022/09/27 08:14:40;;;;;;;;;2.25;1.25;;;;;;;;5102630;27;64025;-80
2022/09/27 08:17:05;;;;;;;;;2.00;1.00;;;;;;;;5104186;27;61766;-80
2022/09/27 08:19:30;;;;;;;;;2.00;2.00;;;;;;;;5103488;27;61848;-80
2022/09/27 08:21:55;;;;;;;;;0.50;0.50;;;;;;;;5104724;27;61893;-80
2022/09/27 08:24:21;;;;;;;;;1.00;1.00;;;;;;;;5103778;27;61895;-80
2022/09/27 08:26:46;;;;;;;;;1.75;1.00;;;;;;;;5104570;27;61837;-80
2022/09/27 08:29:12;;;;;;;;;1.25;0.00;;;;;;;;5104929;27;62321;-80
2022/09/27 08:31:37;;;;;;;;;0.50;0.00;;;;;;;;5104230;27;62045;-80
2022/09/27 08:34:03;;;;;;;;;2.25;0.00;;;;;;;;5102496;27;63952;-80
2022/09/27 08:36:30;;;;;;;;;2.00;1.00;;;;;;;;5104400;27;61847;-81
2022/09/27 08:38:57;;;;;;;;;1.50;0.00;;;;;;;;5102624;27;61750;-81
2022/09/27 08:41:23;;;;;;;;;1.25;0.00;;;;;;;;5104372;27;62013;-81
2022/09/27 08:44:05;;;;;;;;;3.00;1.00;;;;;;;;5103624;27;61737;-81
2022/09/27 08:47:02;;;;;;;;;2.00;0.00;;;;;;;;5103807;27;61841;-80
2022/09/27 08:49:32;;;;;;;;;0.00;0.00;;;;;;;;5081217;28;62228;-80
2022/09/27 08:51:58;;;;;;;;;0.00;0.00;;;;;;;;5081161;28;62104;-80
2022/09/27 08:54:25;;;;;;;;;0.00;0.00;;;;;;;;5080444;28;63461;-80
2022/09/27 08:57:01;;;;;;;;;0.75;0.75;;;;;;;;5080388;28;62009;-80
2022/09/27 08:59:30;;;;;;;;;1.00;0.00;;;;;;;;5080642;28;61766;-81
2022/09/27 09:01:55;;;;;;;;;0.75;0.75;;;;;;;;5080808;28;61826;-80
2022/09/27 09:04:28;;;;;;;;;1.00;1.00;;;;;;;;5063480;28;62824;-80
2022/09/27 09:07:01;;;;;;;;;0.50;0.50;;;;;;;;5080863;28;62090;-80
2022/09/27 09:09:36;;;;;;;;;0.50;0.50;;;;;;;;5080844;27;61949;-80
2022/09/27 09:14:58;;;;;;;;;2.00;0.25;;;;;;;;5080234;27;61829;-80
2022/09/27 09:17:26;;;;;;;;;2.00;2.00;;;;;;;;5080518;28;62105;-80
2022/09/27 09:19:54;;;;;;;;;3.25;1.00;;;;;;;;5080764;28;61794;-80
2022/09/27 09:22:28;;;;;;;;;2.50;1.00;;;;;;;;5080982;28;61992;-80
2022/09/27 09:24:57;;;;;;;;;0.00;0.00;;;;;;;;5089008;27;62069;-80
2022/09/27 09:27:31;;;;;;;;;0.75;0.75;;;;;;;;5103669;27;61851;-82
2022/09/27 09:30:14;;;;;;;;;0.00;0.00;;;;;;;;5103125;27;61773;-80
2022/09/27 09:32:39;;;;;;;;;4.00;2.00;;;;;;;;5102295;27;61969;-80
2022/09/27 09:35:37;;;;;;;;;1.50;1.50;;;;;;;;5102949;27;61927;-80
2022/09/27 09:38:08;;;;;;;;;3.50;1.00;;;;;;;;5039798;28;62317;-80
2022/09/27 09:40:41;;;;;;;;;0.00;0.00;;;;;;;;5040287;28;62309;-80
2022/09/27 09:43:28;;;;;;;;;1.00;0.00;;;;;;;;5039929;28;62132;-80
2022/09/27 09:46:08;;;;;;;;;0.00;0.00;;;;;;;;5039691;28;62149;-80
2022/09/27 09:48:48;;;;;;;;;0.00;0.00;;;;;;;;5040279;28;61825;-80
2022/09/27 09:51:17;;;;;;;;;2.00;0.75;;;;;;;;5039772;28;61982;-80
2022/09/27 09:53:52;;;;;;;;;1.00;0.00;;;;;;;;5040212;28;62129;-81
2022/09/27 09:56:23;;;;;;;;;0.00;0.00;;;;;;;;5039118;28;62045;-81
2022/09/27 09:59:09;;;;;;;;;0.00;0.00;;;;;;;;5039598;28;61980;-81
2022/09/27 10:01:46;;;;;;;;;1.00;0.00;;;;;;;;5039378;28;62040;-81
2022/09/27 10:04:14;;;;;;;;;0.00;0.00;;;;;;;;5023051;28;61818;-81
2022/09/27 10:06:40;;;;;;;;;0.75;0.00;;;;;;;;5039408;28;62319;-81
2022/09/27 10:09:05;;;;;;;;;0.25;0.00;;;;;;;;5039655;28;61911;-81
2022/09/27 10:11:35;;;;;;;;;2.00;0.00;;;;;;;;5039694;28;61898;-81
2022/09/27 10:14:01;;;;;;;;;0.00;0.00;;;;;;;;5076297;27;62002;-80
2022/09/27 10:16:28;;;;;;;;;0.00;0.00;;;;;;;;5102306;27;62066;-81
2022/09/27 10:18:56;;;;;;;;;1.00;1.00;;;;;;;;5103189;27;62035;-81
2022/09/27 10:21:24;;;;;;;;;2.50;1.00;;;;;;;;5102516;27;61971;-81
2022/09/27 10:24:13;;;;;;;;;0.00;0.00;;;;;;;;5103072;27;61874;-82
2022/09/27 10:26:39;;;;;;;;;0.00;0.00;;;;;;;;5093857;27;61981;-81
2022/09/27 10:29:20;;;;;;;;;0.00;0.00;;;;;;;;5102734;27;61799;-82
2022/09/27 10:31:47;;;;;;;;;0.50;0.00;;;;;;;;5102745;27;61840;-84
2022/09/27 10:34:33;;;;;;;;;0.00;0.00;;;;;;;;5102756;27;61993;-81
2022/09/27 10:37:01;;;;;;;;;0.00;0.00;;;;;;;;5102044;27;63399;-81
2022/09/27 10:39:27;;;;;;;;;1.50;0.00;;;;;;;;5102398;27;61837;-81
2022/09/27 10:41:52;;;;;;;;;1.00;0.00;;;;;;;;5103652;27;61999;-82
2022/09/27 10:44:18;;;;;;;;;0.00;0.00;;;;;;;;5106163;27;62220;-81
2022/09/27 10:46:46;;;;;;;;;3.75;2.00;;;;;;;;5105646;27;62123;-81
2022/09/27 10:49:30;;;;;;;;;0.50;0.50;;;;;;;;5106124;27;61931;-80
2022/09/27 10:51:59;;;;;;;;;0.25;0.25;;;;;;;;5106677;27;61820;-80
2022/09/27 10:54:28;;;;;;;;;0.25;0.00;;;;;;;;5105066;27;62087;-82
2022/09/27 10:56:59;;;;;;;;;1.00;1.00;;;;;;;;5105312;27;63055;-82
2022/09/27 10:59:26;;;;;;;;;2.00;0.00;;;;;;;;5105826;27;61889;-82
2022/09/27 11:01:52;;;;;;;;;1.50;0.00;;;;;;;;5105859;27;61821;-81
2022/09/27 11:04:27;;;;;;;;;1.00;1.00;;;;;;;;5106372;27;61745;-81
2022/09/27 11:07:05;;;;;;;;;1.00;1.00;;;;;;;;5105599;27;62103;-81
2022/09/27 11:09:30;;;;;;;;;0.00;0.00;;;;;;;;5105836;27;61983;-82
2022/09/27 11:12:09;;;;;;;;;1.00;1.00;;;;;;;;5105736;27;61771;-82
2022/09/27 11:14:34;;;;;;;;;0.25;0.25;;;;;;;;5106392;27;61694;-81
2022/09/27 11:17:06;;;;;;;;;1.75;1.00;;;;;;;;5105246;27;62001;-81
2022/09/27 11:19:46;;;;;;;;;3.00;1.00;;;;;;;;5105754;27;61894;-81
2022/09/27 11:22:30;;;;;;;;;3.75;1.50;;;;;;;;5104061;27;61911;-81
2022/09/27 11:24:55;;;;;;;;;1.25;1.00;;;;;;;;5103960;27;62077;-80
2022/09/27 11:27:23;;;;;;;;;1.00;1.00;;;;;;;;5104761;27;62024;-81
2022/09/27 11:29:58;;;;;;;;;0.50;0.50;;;;;;;;5104544;27;62162;-81
2022/09/27 11:32:32;;;;;;;;;1.75;0.25;;;;;;;;5105140;27;62004;-81
2022/09/27 11:35:16;;;;;;;;;0.00;0.00;;;;;;;;5106723;27;62026;-80
2022/09/27 11:37:41;;;;;;;;;1.00;1.00;;;;;;;;5104901;27;62219;-80
2022/09/27 11:40:23;;;;;;;;;3.25;0.25;;;;;;;;5105231;27;62159;-81
2022/09/27 11:42:55;;;;;;;;;1.50;1.00;;;;;;;;5105744;27;61822;-81
2022/09/27 11:45:38;;;;;;;;;3.00;0.75;;;;;;;;5105483;27;61829;-81
2022/09/27 11:48:19;;;;;;;;;0.00;0.00;;;;;;;;5105411;27;62914;-80
2022/09/27 11:50:49;;;;;;;;;0.00;0.00;;;;;;;;5105832;27;61932;-80
2022/09/27 11:53:20;;;;;;;;;0.00;0.00;;;;;;;;5105915;27;61781;-79
2022/09/27 11:55:49;;;;;;;;;2.25;1.00;;;;;;;;5104111;27;61772;-82
2022/09/27 11:58:25;;;;;;;;;0.00;0.00;;;;;;;;5104422;27;61916;-81
2022/09/27 12:01:05;;;;;;;;;0.00;0.00;;;;;;;;5104742;27;61770;-81
2022/09/27 12:03:59;;;;;;;;;0.00;0.00;;;;;;;;5104879;27;61624;-82
2022/09/27 12:06:34;;;;;;;;;0.00;0.00;;;;;;;;5061504;28;61883;-81
2022/09/27 12:09:09;;;;;;;;;2.25;1.00;;;;;;;;5061351;28;61918;-81
2022/09/27 12:11:47;;;;;;;;;0.00;0.00;;;;;;;;5061366;28;61840;-82
2022/09/27 12:14:31;;;;;;;;;0.00;0.00;;;;;;;;5061596;28;61972;-82
2022/09/27 12:16:56;;;;;;;;;1.00;1.00;;;;;;;;5061399;28;62048;-82
2022/09/27 12:19:26;;;;;;;;;1.00;1.00;;;;;;;;5060787;28;62475;-81
2022/09/27 12:21:51;;;;;;;;;3.00;1.00;;;;;;;;5061659;28;61941;-82
2022/09/27 12:24:20;;;;;;;;;1.00;1.00;;;;;;;;5060859;28;62055;-82
2022/09/27 12:26:47;;;;;;;;;2.75;1.00;;;;;;;;5062381;28;62029;-80
2022/09/27 12:29:25;;;;;;;;;0.00;0.00;;;;;;;;5044621;28;64807;-80
2022/09/27 12:32:06;;;;;;;;;1.00;1.00;;;;;;;;5062499;28;62355;-80
2022/09/27 12:34:46;;;;;;;;;2.25;1.25;;;;;;;;5062643;28;62657;-80
2022/09/27 12:37:15;;;;;;;;;3.25;1.00;;;;;;;;5062488;28;62192;-80
2022/09/27 12:39:53;;;;;;;;;1.00;1.00;;;;;;;;5061881;28;62492;-82
2022/09/27 12:42:31;;;;;;;;;2.00;1.00;;;;;;;;5074064;27;62070;-79
2022/09/27 12:44:56;;;;;;;;;7.00;6.00;;;;;;;;5104628;27;61681;-80
2022/09/27 12:47:45;;;;;;;;;6.75;4.25;;;;;;;;5105377;27;62191;-80
2022/09/27 12:50:16;;;;;;;;;23.75;14.75;;;;;;;;5106177;27;62950;-80
2022/09/27 12:52:49;;;;;;;;;3.25;2.00;;;;;;;;5106257;27;61960;-80
2022/09/27 12:55:22;;;;;;;;;3.00;2.00;;;;;;;;5106337;27;61973;-80
2022/09/27 12:57:54;;;;;;;;;0.00;0.00;;;;;;;;5105732;27;62102;-80
2022/09/27 13:00:24;;;;;;;;;1.00;0.25;;;;;;;;5105205;27;62147;-80
2022/09/27 13:02:50;;;;;;;;;2.00;2.00;;;;;;;;5105528;27;62185;-79
2022/09/27 13:05:15;;;;;;;;;2.00;1.00;;;;;;;;5103961;27;61858;-81
2022/09/27 13:07:51;;;;;;;;;1.00;1.00;;;;;;;;5103873;27;62354;-81
2022/09/27 13:10:34;;;;;;;;;3.00;1.75;;;;;;;;5103473;27;61862;-80
2022/09/27 13:13:05;;;;;;;;;2.75;1.00;;;;;;;;5104638;27;62125;-80
2022/09/27 13:15:35;;;;;;;;;2.00;0.75;;;;;;;;5105079;27;61891;-80
2022/09/27 13:18:02;;;;;;;;;2.00;0.75;;;;;;;;5103367;27;62129;-80
2022/09/27 13:20:34;;;;;;;;;0.75;0.75;;;;;;;;5104112;27;61954;-81
2022/09/27 13:23:02;;;;;;;;;2.75;1.00;;;;;;;;5104020;27;61955;-81
2022/09/27 13:25:46;;;;;;;;;0.75;0.75;;;;;;;;5104155;27;61717;-81
2022/09/27 13:28:36;;;;;;;;;1.75;0.50;;;;;;;;5104183;27;61640;-81
2022/09/27 13:31:02;;;;;;;;;1.25;1.25;;;;;;;;5102937;27;61793;-82
2022/09/27 13:33:32;;;;;;;;;4.50;2.25;;;;;;;;5103595;27;62267;-81
2022/09/27 13:36:06;;;;;;;;;7.25;4.75;;;;;;;;5103435;27;62177;-87
2022/09/27 13:38:32;;;;;;;;;1.00;1.00;;;;;;;;5103336;27;62156;-81
2022/09/27 13:41:14;;;;;;;;;1.00;0.00;;;;;;;;5100569;27;63506;-81
2022/09/27 13:43:47;;;;;;;;;3.00;1.75;;;;;;;;5100799;27;62066;-81
2022/09/27 13:46:18;;;;;;;;;0.75;0.75;;;;;;;;5099187;27;61852;-81
2022/09/27 13:48:58;;;;;;;;;1.75;1.00;;;;;;;;5102150;27;61716;-81
2022/09/27 13:51:23;;;;;;;;;0.50;0.00;;;;;;;;5099714;27;63162;-81
2022/09/27 13:53:59;;;;;;;;;1.00;1.00;;;;;;;;5100305;27;61741;-81
2022/09/27 13:56:45;;;;;;;;;1.50;0.75;;;;;;;;5101628;27;61965;-81
2022/09/27 13:59:16;;;;;;;;;2.50;0.00;;;;;;;;5102196;27;62368;-81
2022/09/27 14:01:46;;;;;;;;;1.00;0.00;;;;;;;;5101059;27;61924;-81
2022/09/27 14:04:35;;;;;;;;;2.75;2.25;;;;;;;;5098980;27;62719;-81
2022/09/27 14:07:02;;;;;;;;;1.00;1.00;;;;;;;;5099953;27;61737;-81
2022/09/27 14:09:36;;;;;;;;;0.50;0.50;;;;;;;;5101499;27;62102;-81
2022/09/27 14:12:06;;;;;;;;;1.00;1.00;;;;;;;;5096976;27;62171;-80
2022/09/27 14:14:32;;;;;;;;;1.75;0.00;;;;;;;;5104412;27;62099;-80
2022/09/27 14:16:58;;;;;;;;;4.00;0.50;;;;;;;;5100869;27;62158;-81
2022/09/27 14:19:24;;;;;;;;;5.75;1.25;;;;;;;;5101889;27;61718;-80
2022/09/27 14:21:50;;;;;;;;;4.25;0.75;;;;;;;;5100752;27;62299;-80
2022/09/27 14:24:25;;;;;;;;;0.00;0.00;;;;;;;;5100366;27;62089;-81
2022/09/27 14:27:03;;;;;;;;;0.75;0.75;;;;;;;;5102505;27;62140;-81
2022/09/27 14:29:30;;;;;;;;;6.50;3.00;;;;;;;;5102870;27;61916;-81
2022/09/27 14:32:02;;;;;;;;;2.25;1.00;;;;;;;;5099943;27;63754;-80
2022/09/27 14:34:28;;;;;;;;;2.75;2.00;;;;;;;;5102188;27;61821;-80
2022/09/27 14:39:38;;;;;;;;;5.75;4.00;;;;;;;;5093791;27;61801;-82
2022/09/27 14:42:05;;;;;;;;;4.00;1.75;;;;;;;;5100964;27;62035;-81
2022/09/27 14:44:32;;;;;;;;;6.00;2.00;;;;;;;;5102401;27;62002;-81
2022/09/27 14:47:08;;;;;;;;;7.00;3.00;;;;;;;;5101689;27;61745;-82
2022/09/27 14:49:33;;;;;;;;;9.25;4.00;;;;;;;;5099589;27;61904;-83
2022/09/27 14:51:59;;;;;;;;;4.50;4.25;;;;;;;;5098871;27;62840;-81
2022/09/27 14:54:29;;;;;;;;;5.25;4.25;;;;;;;;5096663;27;62077;-81
2022/09/27 14:56:56;;;;;;;;;7.50;5.00;;;;;;;;5102586;27;62010;-81
2022/09/27 14:59:31;;;;;;;;;8.50;4.00;;;;;;;;5099302;27;61744;-81
2022/09/27 15:02:01;;;;;;;;;4.00;2.25;;;;;;;;5095062;27;61778;-82
2022/09/27 15:04:31;;;;;;;;;3.00;3.00;;;;;;;;5100666;27;62016;-82
2022/09/27 15:06:57;;;;;;;;;7.00;3.75;;;;;;;;5096504;27;62089;-82
2022/09/27 15:09:23;;;;;;;;;3.00;2.00;;;;;;;;5100449;27;61752;-82